createdAt,value
2016-04-17T00:00:23.724Z,0
2016-04-17T00:01:23.695Z,0
2016-04-17T00:02:23.666Z,0
2016-04-17T00:03:23.638Z,0
2016-04-17T00:04:23.626Z,0
2016-04-17T00:05:23.582Z,0
2016-04-17T00:06:23.552Z,0
2016-04-17T00:07:23.540Z,0
2016-04-17T00:08:23.526Z,0
2016-04-17T00:09:23.515Z,0
2016-04-17T00:10:23.454Z,0
2016-04-17T00:11:23.410Z,0
2016-04-17T00:12:23.398Z,0
2016-04-17T00:13:23.368Z,0
2016-04-17T00:14:23.339Z,0
2016-04-17T00:15:23.326Z,0
2016-04-17T00:16:23.283Z,0
2016-04-17T00:17:23.254Z,0
2016-04-17T00:18:23.241Z,0
2016-04-17T00:19:23.197Z,0
2016-04-17T00:20:23.183Z,0
2016-04-17T00:21:23.140Z,0
2016-04-17T00:22:23.111Z,0
2016-04-17T00:23:23.098Z,0
2016-04-17T00:24:23.305Z,0
2016-04-17T00:25:23.041Z,0
2016-04-17T00:26:22.997Z,0
2016-04-17T00:27:22.983Z,0
2016-04-17T00:28:22.955Z,0
2016-04-17T00:29:22.942Z,0
2016-04-17T00:30:22.898Z,0
2016-04-17T00:31:22.869Z,0
2016-04-17T00:32:22.841Z,0
2016-04-17T00:33:22.843Z,0
2016-04-17T00:34:22.799Z,0
2016-04-17T00:35:22.771Z,0
2016-04-17T00:36:22.743Z,0
2016-04-17T00:37:22.715Z,0
2016-04-17T00:38:22.685Z,0
2016-04-17T00:39:22.657Z,0
2016-04-17T00:40:22.628Z,0
2016-04-17T00:41:22.600Z,0
2016-04-17T00:42:22.587Z,0
2016-04-17T00:43:22.559Z,0
2016-04-17T00:44:22.529Z,0
2016-04-17T00:45:22.329Z,0
2016-04-17T00:46:22.456Z,0
2016-04-17T00:47:22.444Z,0
2016-04-17T00:48:22.415Z,0
2016-04-17T00:49:22.387Z,0
2016-04-17T00:50:22.359Z,0
2016-04-17T00:51:22.330Z,0
2016-04-17T00:52:22.301Z,0
2016-04-17T00:53:22.273Z,0
2016-04-17T00:54:22.276Z,0
2016-04-17T00:55:22.216Z,0
2016-04-17T00:56:22.187Z,0
2016-04-17T00:57:22.174Z,0
2016-04-17T00:58:22.146Z,0
2016-04-17T00:59:22.116Z,0
2016-04-17T01:00:22.073Z,0
2016-04-17T01:01:22.060Z,0
2016-04-17T01:02:21.875Z,0
2016-04-17T01:03:22.002Z,0
2016-04-17T01:04:21.990Z,0
2016-04-17T01:05:21.946Z,0
2016-04-17T01:06:21.918Z,0
2016-04-17T01:07:21.888Z,0
2016-04-17T01:08:21.860Z,0
2016-04-17T01:09:21.831Z,0
2016-04-17T01:10:21.834Z,0
2016-04-17T01:11:21.790Z,0
2016-04-17T01:12:21.840Z,0
2016-04-17T01:13:21.733Z,0
2016-04-17T01:14:21.689Z,0
2016-04-17T01:15:21.659Z,0
2016-04-17T01:16:21.647Z,0
2016-04-17T01:17:21.618Z,0
2016-04-17T01:18:21.575Z,0
2016-04-17T01:19:21.562Z,0
2016-04-17T01:20:21.517Z,0
2016-04-17T01:21:21.504Z,0
2016-04-17T01:22:21.475Z,0
2016-04-17T01:23:21.447Z,0
2016-04-17T01:24:21.434Z,0
2016-04-17T01:25:21.390Z,0
2016-04-17T01:26:21.392Z,0
2016-04-17T01:27:21.349Z,0
2016-04-17T01:28:21.304Z,0
2016-04-17T01:29:21.291Z,0
2016-04-17T01:30:21.263Z,0
2016-04-17T01:31:21.219Z,0
2016-04-17T01:32:21.190Z,0
2016-04-17T01:33:21.161Z,0
2016-04-17T01:34:21.132Z,0
2016-04-17T01:35:21.121Z,0
2016-04-17T01:36:21.091Z,0
2016-04-17T01:37:21.063Z,0
2016-04-17T01:38:21.034Z,0
2016-04-17T01:39:21.006Z,0
2016-04-17T01:40:20.992Z,0
2016-04-17T01:41:20.949Z,0
2016-04-17T01:42:20.920Z,0
2016-04-17T01:43:20.892Z,0
2016-04-17T01:44:20.878Z,0
2016-04-17T01:45:20.834Z,0
2016-04-17T01:46:20.806Z,0
2016-04-17T01:47:20.793Z,0
2016-04-17T01:48:20.748Z,0
2016-04-17T01:49:20.720Z,0
2016-04-17T01:50:20.691Z,0
2016-04-17T01:51:20.678Z,0
2016-04-17T01:52:20.666Z,0
2016-04-17T01:53:20.637Z,0
2016-04-17T01:54:20.593Z,0
2016-04-17T01:55:20.580Z,0
2016-04-17T01:56:20.536Z,0
2016-04-17T01:57:20.522Z,0
2016-04-17T01:58:20.478Z,0
2016-04-17T01:59:20.450Z,0
2016-04-17T02:00:20.422Z,0
2016-04-17T02:01:20.408Z,0
2016-04-17T02:02:20.380Z,0
2016-04-17T02:03:20.351Z,0
2016-04-17T02:04:20.324Z,0
2016-04-17T02:05:20.310Z,0
2016-04-17T02:06:20.266Z,0
2016-04-17T02:07:20.252Z,0
2016-04-17T02:08:20.209Z,0
2016-04-17T02:09:20.180Z,0
2016-04-17T02:10:20.168Z,0
2016-04-17T02:11:20.138Z,0
2016-04-17T02:12:20.095Z,0
2016-04-17T02:13:20.081Z,0
2016-04-17T02:14:20.084Z,0
2016-04-17T02:15:20.023Z,0
2016-04-17T02:16:19.981Z,0
2016-04-17T02:17:19.983Z,0
2016-04-17T02:18:19.970Z,0
2016-04-17T02:19:19.941Z,0
2016-04-17T02:20:19.912Z,0
2016-04-17T02:21:19.556Z,0
2016-04-17T02:22:19.830Z,0
2016-04-17T02:23:19.800Z,0
2016-04-17T02:24:19.788Z,0
2016-04-17T02:25:19.759Z,0
2016-04-17T02:26:19.730Z,0
2016-04-17T02:27:19.702Z,0
2016-04-17T02:28:19.674Z,0
2016-04-17T02:29:19.644Z,0
2016-04-17T02:30:19.616Z,0
2016-04-17T02:31:19.588Z,0
2016-04-17T02:32:19.560Z,0
2016-04-17T02:33:19.531Z,0
2016-04-17T02:34:19.502Z,0
2016-04-17T02:35:19.474Z,0
2016-04-17T02:36:19.445Z,0
2016-04-17T02:37:19.432Z,0
2016-04-17T02:38:19.404Z,0
2016-04-17T02:39:19.376Z,0
2016-04-17T02:40:19.346Z,0
2016-04-17T02:41:19.318Z,0
2016-04-17T02:42:19.289Z,0
2016-04-17T02:43:19.276Z,0
2016-04-17T02:44:19.232Z,0
2016-04-17T02:45:19.220Z,0
2016-04-17T02:46:19.175Z,0
2016-04-17T02:47:19.147Z,0
2016-04-17T02:48:19.117Z,0
2016-04-17T02:49:19.090Z,0
2016-04-17T02:50:19.092Z,0
2016-04-17T02:51:19.048Z,0
2016-04-17T02:52:19.019Z,0
2016-04-17T02:53:18.991Z,0
2016-04-17T02:54:18.993Z,0
2016-04-17T02:55:19.028Z,0
2016-04-17T02:56:18.905Z,0
2016-04-17T02:57:18.877Z,0
2016-04-17T02:58:18.863Z,0
2016-04-17T02:59:18.819Z,0
2016-04-17T03:00:18.650Z,0
2016-04-17T03:01:18.762Z,0
2016-04-17T03:02:18.749Z,0
2016-04-17T03:03:18.721Z,0
2016-04-17T03:04:18.693Z,0
2016-04-17T03:05:18.663Z,0
2016-04-17T03:06:18.635Z,0
2016-04-17T03:07:18.607Z,0
2016-04-17T03:08:18.593Z,0
2016-04-17T03:09:18.565Z,0
2016-04-17T03:10:18.568Z,0
2016-04-17T03:11:18.507Z,0
2016-04-17T03:12:18.479Z,0
2016-04-17T03:13:18.482Z,0
2016-04-17T03:14:18.438Z,0
2016-04-17T03:15:18.409Z,0
2016-04-17T03:16:18.365Z,0
2016-04-17T03:17:18.367Z,0
2016-04-17T03:18:18.323Z,0
2016-04-17T03:19:18.342Z,0
2016-04-17T03:20:18.281Z,0
2016-04-17T03:21:18.253Z,0
2016-04-17T03:22:18.225Z,0
2016-04-17T03:23:18.197Z,0
2016-04-17T03:24:18.168Z,0
2016-04-17T03:25:18.155Z,0
2016-04-17T03:26:18.127Z,0
2016-04-17T03:27:18.113Z,0
2016-04-17T03:28:18.069Z,0
2016-04-17T03:29:18.009Z,0
2016-04-17T03:30:17.997Z,0
2016-04-17T03:31:17.968Z,0
2016-04-17T03:32:17.971Z,0
2016-04-17T03:33:17.926Z,0
2016-04-17T03:34:17.898Z,0
2016-04-17T03:35:17.853Z,0
2016-04-17T03:36:17.825Z,0
2016-04-17T03:37:17.812Z,0
2016-04-17T03:38:17.799Z,0
2016-04-17T03:39:17.739Z,0
2016-04-17T03:40:17.773Z,0
2016-04-17T03:41:17.698Z,0
2016-04-17T03:42:17.670Z,0
2016-04-17T03:43:17.640Z,0
2016-04-17T03:44:17.628Z,0
2016-04-17T03:45:17.584Z,0
2016-04-17T03:46:17.570Z,0
2016-04-17T03:47:17.542Z,0
2016-04-17T03:48:17.514Z,0
2016-04-17T03:49:17.485Z,0
2016-04-17T03:50:17.473Z,0
2016-04-17T03:51:17.459Z,0
2016-04-17T03:52:17.399Z,0
2016-04-17T03:53:17.387Z,0
2016-04-17T03:54:17.358Z,0
2016-04-17T03:55:17.845Z,0
2016-04-17T03:56:17.300Z,0
2016-04-17T03:57:17.131Z,0
2016-04-17T03:58:17.244Z,0
2016-04-17T03:59:17.215Z,0
2016-04-17T04:00:16.874Z,0
2016-04-17T04:01:17.002Z,0
2016-04-17T04:02:17.145Z,0
2016-04-17T04:03:17.116Z,0
2016-04-17T04:04:17.088Z,0
2016-04-17T04:05:17.075Z,0
2016-04-17T04:06:17.031Z,0
2016-04-17T04:07:17.002Z,0
2016-04-17T04:08:16.974Z,0
2016-04-17T04:09:16.945Z,0
2016-04-17T04:10:17.573Z,0
2016-04-17T04:11:16.918Z,0
2016-04-17T04:12:16.860Z,0
2016-04-17T04:13:16.846Z,0
2016-04-17T04:14:16.802Z,0
2016-04-17T04:15:16.773Z,0
2016-04-17T04:16:16.762Z,0
2016-04-17T04:17:16.717Z,0
2016-04-17T04:18:16.704Z,0
2016-04-17T04:19:16.675Z,0
2016-04-17T04:20:16.662Z,0
2016-04-17T04:21:16.617Z,0
2016-04-17T04:22:16.620Z,0
2016-04-17T04:23:16.561Z,0
2016-04-17T04:24:16.548Z,0
2016-04-17T04:25:16.644Z,0
2016-04-17T04:26:16.491Z,0
2016-04-17T04:27:16.461Z,0
2016-04-17T04:28:16.449Z,0
2016-04-17T04:29:16.389Z,0
2016-04-17T04:30:16.361Z,5
2016-04-17T04:31:16.348Z,5
2016-04-17T04:32:16.319Z,5
2016-04-17T04:33:16.291Z,5
2016-04-17T04:34:16.278Z,5
2016-04-17T04:35:16.234Z,5
2016-04-17T04:36:16.065Z,5
2016-04-17T04:37:16.193Z,10
2016-04-17T04:38:16.163Z,10
2016-04-17T04:39:16.135Z,10
2016-04-17T04:40:16.263Z,10
2016-04-17T04:41:16.078Z,10
2016-04-17T04:42:16.065Z,10
2016-04-17T04:43:16.021Z,15
2016-04-17T04:44:16.007Z,15
2016-04-17T04:45:15.979Z,15
2016-04-17T04:46:15.950Z,15
2016-04-17T04:47:15.923Z,15
2016-04-17T04:48:15.909Z,15
2016-04-17T04:49:15.865Z,15
2016-04-17T04:50:15.836Z,15
2016-04-17T04:51:15.808Z,15
2016-04-17T04:52:15.623Z,15
2016-04-17T04:53:15.751Z,15
2016-04-17T04:54:15.722Z,15
2016-04-17T04:55:15.725Z,15
2016-04-17T04:56:15.664Z,15
2016-04-17T04:57:15.652Z,15
2016-04-17T04:58:15.639Z,15
2016-04-17T04:59:15.594Z,15
2016-04-17T05:00:15.567Z,15
2016-04-17T05:01:15.553Z,15
2016-04-17T05:02:15.510Z,20
2016-04-17T05:03:15.480Z,20
2016-04-17T05:04:15.452Z,20
2016-04-17T05:05:15.424Z,25
2016-04-17T05:06:15.396Z,25
2016-04-17T05:07:15.366Z,25
2016-04-17T05:08:15.354Z,25
2016-04-17T05:09:15.324Z,30
2016-04-17T05:10:15.282Z,30
2016-04-17T05:11:15.268Z,30
2016-04-17T05:12:15.240Z,30
2016-04-17T05:13:15.210Z,30
2016-04-17T05:14:15.182Z,30
2016-04-17T05:15:15.153Z,30
2016-04-17T05:16:15.126Z,30
2016-04-17T05:17:15.112Z,35
2016-04-17T05:18:15.084Z,35
2016-04-17T05:19:15.055Z,35
2016-04-17T05:20:15.026Z,35
2016-04-17T05:21:15.013Z,35
2016-04-17T05:22:14.970Z,35
2016-04-17T05:23:14.941Z,40
2016-04-17T05:24:14.928Z,40
2016-04-17T05:25:14.883Z,40
2016-04-17T05:26:14.870Z,45
2016-04-17T05:27:14.827Z,45
2016-04-17T05:28:14.814Z,50
2016-04-17T05:29:14.785Z,45
2016-04-17T05:30:14.756Z,45
2016-04-17T05:31:14.728Z,45
2016-04-17T05:32:14.715Z,50
2016-04-17T05:33:14.686Z,50
2016-04-17T05:34:14.486Z,50
2016-04-17T05:35:14.614Z,55
2016-04-17T05:36:14.601Z,55
2016-04-17T05:37:14.572Z,55
2016-04-17T05:38:14.527Z,60
2016-04-17T05:39:14.515Z,60
2016-04-17T05:40:14.487Z,65
2016-04-17T05:41:14.474Z,65
2016-04-17T05:42:14.429Z,70
2016-04-17T05:43:14.416Z,70
2016-04-17T05:44:14.373Z,65
2016-04-17T05:45:14.360Z,55
2016-04-17T05:46:14.331Z,50
2016-04-17T05:47:14.287Z,45
2016-04-17T05:48:14.274Z,45
2016-04-17T05:49:14.245Z,45
2016-04-17T05:50:14.232Z,45
2016-04-17T05:51:14.204Z,45
2016-04-17T05:52:14.176Z,45
2016-04-17T05:53:14.147Z,45
2016-04-17T05:54:14.118Z,45
2016-04-17T05:55:14.089Z,50
2016-04-17T05:56:14.061Z,50
2016-04-17T05:57:14.032Z,50
2016-04-17T05:58:14.020Z,55
2016-04-17T05:59:13.975Z,55
2016-04-17T06:00:13.947Z,60
2016-04-17T06:01:13.918Z,60
2016-04-17T06:02:13.906Z,60
2016-04-17T06:03:13.898Z,60
2016-04-17T06:04:13.924Z,60
2016-04-17T06:05:13.936Z,65
2016-04-17T06:06:13.948Z,65
2016-04-17T06:07:13.959Z,70
2016-04-17T06:08:13.946Z,80
2016-04-17T06:09:13.932Z,90
2016-04-17T06:10:13.918Z,100
2016-04-17T06:11:13.919Z,110
2016-04-17T06:12:13.905Z,115
2016-04-17T06:13:13.866Z,125
2016-04-17T06:14:13.860Z,135
2016-04-17T06:15:13.821Z,140
2016-04-17T06:16:13.813Z,150
2016-04-17T06:17:13.790Z,155
2016-04-17T06:18:13.763Z,155
2016-04-17T06:19:13.736Z,160
2016-04-17T06:20:13.709Z,160
2016-04-17T06:21:13.746Z,140
2016-04-17T06:22:13.657Z,130
2016-04-17T06:23:13.628Z,130
2016-04-17T06:24:13.632Z,115
2016-04-17T06:25:13.588Z,110
2016-04-17T06:26:13.561Z,105
2016-04-17T06:27:13.534Z,125
2016-04-17T06:28:13.520Z,130
2016-04-17T06:29:13.476Z,145
2016-04-17T06:30:13.447Z,155
2016-04-17T06:31:13.435Z,155
2016-04-17T06:32:13.422Z,155
2016-04-17T06:33:13.377Z,150
2016-04-17T06:34:13.349Z,140
2016-04-17T06:35:13.336Z,135
2016-04-17T06:36:13.291Z,135
2016-04-17T06:37:13.357Z,130
2016-04-17T06:38:13.250Z,125
2016-04-17T06:39:13.221Z,120
2016-04-17T06:40:13.194Z,115
2016-04-17T06:41:13.165Z,120
2016-04-17T06:42:13.151Z,130
2016-04-17T06:43:13.124Z,140
2016-04-17T06:44:13.095Z,150
2016-04-17T06:45:13.066Z,150
2016-04-17T06:46:13.038Z,150
2016-04-17T06:47:13.009Z,155
2016-04-17T06:48:12.996Z,160
2016-04-17T06:49:12.952Z,160
2016-04-17T06:50:12.954Z,165
2016-04-17T06:51:12.910Z,155
2016-04-17T06:52:12.882Z,150
2016-04-17T06:53:12.869Z,145
2016-04-17T06:54:12.825Z,150
2016-04-17T06:55:12.795Z,165
2016-04-17T06:56:12.767Z,180
2016-04-17T06:57:12.756Z,195
2016-04-17T06:58:12.725Z,210
2016-04-17T06:59:12.698Z,225
2016-04-17T07:00:12.700Z,240
2016-04-17T07:01:12.672Z,265
2016-04-17T07:02:12.628Z,280
2016-04-17T07:03:12.614Z,295
2016-04-17T07:04:12.570Z,295
2016-04-17T07:05:12.542Z,300
2016-04-17T07:06:12.529Z,280
2016-04-17T07:07:12.500Z,245
2016-04-17T07:08:12.472Z,215
2016-04-17T07:09:12.443Z,210
2016-04-17T07:10:12.430Z,200
2016-04-17T07:11:12.713Z,200
2016-04-17T07:12:12.374Z,205
2016-04-17T07:13:12.344Z,215
2016-04-17T07:14:12.331Z,225
2016-04-17T07:15:12.287Z,230
2016-04-17T07:16:12.259Z,230
2016-04-17T07:17:12.073Z,230
2016-04-17T07:18:12.218Z,230
2016-04-17T07:19:12.204Z,235
2016-04-17T07:20:12.176Z,215
2016-04-17T07:21:11.990Z,200
2016-04-17T07:22:12.119Z,190
2016-04-17T07:23:12.090Z,185
2016-04-17T07:24:12.062Z,190
2016-04-17T07:25:12.048Z,200
2016-04-17T07:26:12.004Z,215
2016-04-17T07:27:11.992Z,230
2016-04-17T07:28:11.964Z,240
2016-04-17T07:29:11.934Z,255
2016-04-17T07:30:11.906Z,265
2016-04-17T07:31:11.892Z,275
2016-04-17T07:32:11.864Z,290
2016-04-17T07:33:11.852Z,290
2016-04-17T07:34:11.823Z,285
2016-04-17T07:35:11.778Z,280
2016-04-17T07:36:11.781Z,280
2016-04-17T07:37:11.738Z,285
2016-04-17T07:38:11.709Z,285
2016-04-17T07:39:11.711Z,285
2016-04-17T07:40:11.683Z,300
2016-04-17T07:41:11.560Z,310
2016-04-17T07:42:11.641Z,330
2016-04-17T07:43:11.613Z,340
2016-04-17T07:44:11.585Z,345
2016-04-17T07:45:11.555Z,350
2016-04-17T07:46:11.527Z,365
2016-04-17T07:47:11.498Z,620
2016-04-17T07:48:11.470Z,910
2016-04-17T07:49:11.441Z,390
2016-04-17T07:50:11.428Z,340
2016-04-17T07:51:11.415Z,345
2016-04-17T07:52:11.418Z,350
2016-04-17T07:53:11.359Z,365
2016-04-17T07:54:11.362Z,390
2016-04-17T07:55:11.317Z,400
2016-04-17T07:56:11.195Z,410
2016-04-17T07:57:11.275Z,395
2016-04-17T07:58:11.247Z,385
2016-04-17T07:59:11.217Z,370
2016-04-17T08:00:11.221Z,345
2016-04-17T08:01:11.208Z,345
2016-04-17T08:02:11.148Z,355
2016-04-17T08:03:11.135Z,370
2016-04-17T08:04:11.138Z,405
2016-04-17T08:05:11.094Z,520
2016-04-17T08:06:11.080Z,745
2016-04-17T08:07:11.068Z,1255
2016-04-17T08:08:11.008Z,1225
2016-04-17T08:09:10.995Z,1535
2016-04-17T08:10:10.983Z,1050
2016-04-17T08:11:10.985Z,1495
2016-04-17T08:12:10.956Z,1220
2016-04-17T08:13:10.927Z,1340
2016-04-17T08:14:10.883Z,1200
2016-04-17T08:15:10.902Z,1150
2016-04-17T08:16:10.858Z,1325
2016-04-17T08:17:10.829Z,1240
2016-04-17T08:18:10.800Z,1175
2016-04-17T08:19:10.771Z,535
2016-04-17T08:20:10.774Z,475
2016-04-17T08:21:10.776Z,960
2016-04-17T08:22:10.749Z,740
2016-04-17T08:23:10.751Z,590
2016-04-17T08:24:10.692Z,235
2016-04-17T08:25:10.678Z,1495
2016-04-17T08:26:10.572Z,520
2016-04-17T08:27:10.637Z,345
2016-04-17T08:28:10.625Z,465
2016-04-17T08:29:10.612Z,505
2016-04-17T08:30:10.598Z,605
2016-04-17T08:31:10.586Z,335
2016-04-17T08:32:10.556Z,1280
2016-04-17T08:33:10.544Z,1415
2016-04-17T08:34:10.516Z,960
2016-04-17T08:35:10.502Z,380
2016-04-17T08:36:10.489Z,360
2016-04-17T08:37:10.477Z,450
2016-04-17T08:38:10.447Z,470
2016-04-17T08:39:10.435Z,410
2016-04-17T08:40:10.266Z,385
2016-04-17T08:41:10.441Z,395
2016-04-17T08:42:10.413Z,320
2016-04-17T08:43:10.353Z,275
2016-04-17T08:44:10.339Z,255
2016-04-17T08:45:10.326Z,255
2016-04-17T08:46:10.313Z,295
2016-04-17T08:47:10.269Z,395
2016-04-17T08:48:10.257Z,445
2016-04-17T08:49:10.087Z,380
2016-04-17T08:50:10.215Z,360
2016-04-17T08:51:10.202Z,400
2016-04-17T08:52:10.190Z,405
2016-04-17T08:53:10.160Z,385
2016-04-17T08:54:10.147Z,355
2016-04-17T08:55:10.118Z,380
2016-04-17T08:56:10.200Z,395
2016-04-17T08:57:10.062Z,350
2016-04-17T08:58:10.065Z,290
2016-04-17T08:59:10.036Z,280
2016-04-17T09:00:10.007Z,300
2016-04-17T09:01:09.995Z,315
2016-04-17T09:02:09.981Z,320
2016-04-17T09:03:09.937Z,315
2016-04-17T09:04:09.955Z,375
2016-04-17T09:05:09.927Z,430
2016-04-17T09:06:09.914Z,440
2016-04-17T09:07:09.886Z,425
2016-04-17T09:08:09.872Z,355
2016-04-17T09:09:09.844Z,315
2016-04-17T09:10:09.799Z,330
2016-04-17T09:11:09.772Z,350
2016-04-17T09:12:09.758Z,380
2016-04-17T09:13:09.746Z,425
2016-04-17T09:14:09.716Z,430
2016-04-17T09:15:09.689Z,375
2016-04-17T09:16:09.675Z,300
2016-04-17T09:17:09.663Z,240
2016-04-17T09:18:09.618Z,205
2016-04-17T09:19:09.621Z,180
2016-04-17T09:20:09.577Z,175
2016-04-17T09:21:09.563Z,195
2016-04-17T09:22:09.551Z,225
2016-04-17T09:23:09.522Z,255
2016-04-17T09:24:09.494Z,285
2016-04-17T09:25:09.481Z,280
2016-04-17T09:26:09.796Z,255
2016-04-17T09:27:09.440Z,225
2016-04-17T09:28:09.427Z,220
2016-04-17T09:29:09.398Z,240
2016-04-17T09:30:09.370Z,270
2016-04-17T09:31:09.340Z,305
2016-04-17T09:32:09.312Z,305
2016-04-17T09:33:09.300Z,315
2016-04-17T09:34:09.303Z,305
2016-04-17T09:35:09.242Z,285
2016-04-17T09:36:09.229Z,280
2016-04-17T09:37:09.201Z,275
2016-04-17T09:38:09.189Z,280
2016-04-17T09:39:09.175Z,310
2016-04-17T09:40:09.162Z,310
2016-04-17T09:41:09.103Z,315
2016-04-17T09:42:09.089Z,295
2016-04-17T09:43:09.076Z,290
2016-04-17T09:44:09.047Z,265
2016-04-17T09:45:09.035Z,265
2016-04-17T09:46:09.038Z,270
2016-04-17T09:47:08.977Z,255
2016-04-17T09:48:08.966Z,230
2016-04-17T09:49:08.952Z,200
2016-04-17T09:50:08.924Z,190
2016-04-17T09:51:08.895Z,190
2016-04-17T09:52:08.866Z,195
2016-04-17T09:53:08.854Z,215
2016-04-17T09:54:08.825Z,230
2016-04-17T09:55:08.812Z,225
2016-04-17T09:56:08.799Z,240
2016-04-17T09:57:08.771Z,250
2016-04-17T09:58:08.726Z,285
2016-04-17T09:59:08.697Z,330
2016-04-17T10:00:09.481Z,335
2016-04-17T10:01:08.843Z,355
2016-04-17T10:02:08.237Z,380
2016-04-17T10:03:08.599Z,380
2016-04-17T10:04:11.524Z,395
2016-04-17T10:05:15.495Z,385
2016-04-17T10:06:13.514Z,350
2016-04-17T10:07:15.032Z,310
2016-04-17T10:08:15.706Z,275
2016-04-17T10:09:15.364Z,240
2016-04-17T10:10:14.884Z,220
2016-04-17T10:11:14.995Z,220
2016-04-17T10:12:15.248Z,225
2016-04-17T10:13:15.000Z,235
2016-04-17T10:14:14.535Z,235
2016-04-17T10:15:14.427Z,220
2016-04-17T10:16:15.244Z,220
2016-04-17T10:17:14.777Z,230
2016-04-17T10:18:15.577Z,250
2016-04-17T10:19:14.283Z,275
2016-04-17T10:20:15.097Z,310
2016-04-17T10:21:14.679Z,325
2016-04-17T10:22:12.134Z,335
2016-04-17T10:23:15.324Z,335
2016-04-17T10:24:14.546Z,330
2016-04-17T10:25:14.595Z,320
2016-04-17T10:26:12.363Z,300
2016-04-17T10:27:09.585Z,310
2016-04-17T10:28:09.416Z,305
2016-04-17T10:29:08.026Z,310
2016-04-17T10:30:08.013Z,285
2016-04-17T10:31:07.984Z,240
2016-04-17T10:32:07.956Z,230
2016-04-17T10:33:07.958Z,230
2016-04-17T10:34:07.914Z,235
2016-04-17T10:35:07.901Z,235
2016-04-17T10:36:07.872Z,245
2016-04-17T10:37:07.828Z,240
2016-04-17T10:38:07.847Z,230
2016-04-17T10:39:07.803Z,225
2016-04-17T10:40:07.774Z,225
2016-04-17T10:41:07.745Z,225
2016-04-17T10:42:07.733Z,220
2016-04-17T10:43:07.735Z,215
2016-04-17T10:44:07.675Z,210
2016-04-17T10:45:07.662Z,195
2016-04-17T10:46:07.633Z,185
2016-04-17T10:47:07.622Z,185
2016-04-17T10:48:07.607Z,175
2016-04-17T10:49:07.564Z,175
2016-04-17T10:50:07.536Z,170
2016-04-17T10:51:07.538Z,165
2016-04-17T10:52:07.510Z,165
2016-04-17T10:53:07.466Z,170
2016-04-17T10:54:07.452Z,180
2016-04-17T10:55:07.424Z,205
2016-04-17T10:56:07.410Z,235
2016-04-17T10:57:07.398Z,260
2016-04-17T10:58:07.368Z,280
2016-04-17T10:59:07.340Z,290
2016-04-17T11:00:07.313Z,265
2016-04-17T11:01:07.284Z,225
2016-04-17T11:02:07.271Z,210
2016-04-17T11:03:07.460Z,210
2016-04-17T11:04:07.245Z,215
2016-04-17T11:05:07.216Z,215
2016-04-17T11:06:07.187Z,210
2016-04-17T11:07:07.143Z,205
2016-04-17T11:08:07.145Z,195
2016-04-17T11:09:07.117Z,195
2016-04-17T11:10:07.120Z,210
2016-04-17T11:11:07.060Z,230
2016-04-17T11:12:07.063Z,250
2016-04-17T11:13:07.019Z,255
2016-04-17T11:14:07.444Z,255
2016-04-17T11:15:06.978Z,250
2016-04-17T11:16:06.949Z,245
2016-04-17T11:17:06.936Z,230
2016-04-17T11:18:06.908Z,205
2016-04-17T11:19:06.894Z,185
2016-04-17T11:20:06.866Z,170
2016-04-17T11:21:06.853Z,160
2016-04-17T11:22:06.825Z,170
2016-04-17T11:23:06.811Z,200
2016-04-17T11:24:06.766Z,230
2016-04-17T11:25:06.754Z,235
2016-04-17T11:26:06.741Z,240
2016-04-17T11:27:06.713Z,240
2016-04-17T11:28:06.699Z,240
2016-04-17T11:29:06.655Z,240
2016-04-17T11:30:06.643Z,240
2016-04-17T11:31:06.629Z,235
2016-04-17T11:32:06.585Z,235
2016-04-17T11:33:06.573Z,225
2016-04-17T11:34:06.559Z,225
2016-04-17T11:35:06.532Z,215
2016-04-17T11:36:06.503Z,200
2016-04-17T11:37:06.505Z,190
2016-04-17T11:38:06.476Z,180
2016-04-17T11:39:06.464Z,180
2016-04-17T11:40:06.467Z,180
2016-04-17T11:41:06.406Z,190
2016-04-17T11:42:06.378Z,200
2016-04-17T11:43:06.381Z,205
2016-04-17T11:44:06.321Z,220
2016-04-17T11:45:06.324Z,240
2016-04-17T11:46:06.295Z,250
2016-04-17T11:47:06.251Z,255
2016-04-17T11:48:06.254Z,280
2016-04-17T11:49:06.209Z,295
2016-04-17T11:50:06.197Z,330
2016-04-17T11:51:06.168Z,360
2016-04-17T11:52:06.155Z,365
2016-04-17T11:53:06.126Z,375
2016-04-17T11:54:06.097Z,370
2016-04-17T11:55:06.100Z,335
2016-04-17T11:56:06.057Z,280
2016-04-17T11:57:06.043Z,240
2016-04-17T11:58:05.999Z,205
2016-04-17T11:59:05.971Z,190
2016-04-17T12:00:05.974Z,185
2016-04-17T12:01:05.789Z,180
2016-04-17T12:02:05.932Z,200
2016-04-17T12:03:05.904Z,205
2016-04-17T12:04:05.875Z,215
2016-04-17T12:05:05.862Z,230
2016-04-17T12:06:05.849Z,230
2016-04-17T12:07:05.821Z,235
2016-04-17T12:08:05.792Z,255
2016-04-17T12:09:05.779Z,275
2016-04-17T12:10:05.750Z,290
2016-04-17T12:11:05.737Z,290
2016-04-17T12:12:05.709Z,290
2016-04-17T12:13:05.681Z,290
2016-04-17T12:14:05.542Z,275
2016-04-17T12:15:05.654Z,270
2016-04-17T12:16:05.625Z,260
2016-04-17T12:17:05.613Z,260
2016-04-17T12:18:05.600Z,260
2016-04-17T12:19:05.555Z,265
2016-04-17T12:20:05.527Z,280
2016-04-17T12:21:05.530Z,295
2016-04-17T12:22:05.517Z,300
2016-04-17T12:23:05.488Z,300
2016-04-17T12:24:05.460Z,285
2016-04-17T12:25:05.430Z,250
2016-04-17T12:26:05.403Z,225
2016-04-17T12:27:05.391Z,210
2016-04-17T12:28:05.361Z,200
2016-04-17T12:29:05.349Z,180
2016-04-17T12:30:05.304Z,170
2016-04-17T12:31:05.307Z,160
2016-04-17T12:32:05.294Z,150
2016-04-17T12:33:05.266Z,145
2016-04-17T12:34:05.252Z,140
2016-04-17T12:35:05.349Z,135
2016-04-17T12:36:05.196Z,125
2016-04-17T12:37:05.167Z,125
2016-04-17T12:38:05.154Z,125
2016-04-17T12:39:05.141Z,125
2016-04-17T12:40:05.096Z,130
2016-04-17T12:41:05.084Z,140
2016-04-17T12:42:05.056Z,135
2016-04-17T12:43:05.042Z,140
2016-04-17T12:44:05.013Z,145
2016-04-17T12:45:04.984Z,150
2016-04-17T12:46:04.972Z,155
2016-04-17T12:47:04.959Z,155
2016-04-17T12:48:04.931Z,160
2016-04-17T12:49:04.917Z,145
2016-04-17T12:50:04.873Z,150
2016-04-17T12:51:04.860Z,150
2016-04-17T12:52:08.035Z,155
2016-04-17T12:53:04.819Z,170
2016-04-17T12:54:06.774Z,175
2016-04-17T12:55:04.777Z,185
2016-04-17T12:56:04.733Z,205
2016-04-17T12:57:05.626Z,200
2016-04-17T12:58:04.707Z,200
2016-04-17T12:59:11.069Z,200
2016-04-17T13:00:04.666Z,205
2016-04-17T13:01:04.653Z,220
2016-04-17T13:02:04.610Z,250
2016-04-17T13:03:04.596Z,255
2016-04-17T13:04:04.568Z,255
2016-04-17T13:05:04.539Z,265
2016-04-17T13:06:04.510Z,275
2016-04-17T13:07:04.497Z,280
2016-04-17T13:08:04.468Z,290
2016-04-17T13:09:04.440Z,305
2016-04-17T13:10:04.443Z,320
2016-04-17T13:11:04.398Z,315
2016-04-17T13:12:04.495Z,300
2016-04-17T13:13:04.357Z,285
2016-04-17T13:14:04.345Z,260
2016-04-17T13:15:04.315Z,235
2016-04-17T13:16:04.287Z,215
2016-04-17T13:17:04.259Z,210
2016-04-17T13:18:04.089Z,210
2016-04-17T13:19:04.233Z,215
2016-04-17T13:20:04.189Z,220
2016-04-17T13:21:04.191Z,215
2016-04-17T13:22:04.178Z,205
2016-04-17T13:23:04.134Z,210
2016-04-17T13:24:04.105Z,225
2016-04-17T13:25:04.077Z,235
2016-04-17T13:26:04.063Z,250
2016-04-17T13:27:04.176Z,260
2016-04-17T13:28:04.022Z,275
2016-04-17T13:29:04.010Z,290
2016-04-17T13:30:03.980Z,285
2016-04-17T13:31:03.952Z,295
2016-04-17T13:32:03.955Z,300
2016-04-17T13:33:03.958Z,305
2016-04-17T13:34:03.898Z,310
2016-04-17T13:35:03.869Z,295
2016-04-17T13:36:03.857Z,285
2016-04-17T13:37:03.828Z,275
2016-04-17T13:38:03.831Z,265
2016-04-17T13:39:03.771Z,260
2016-04-17T13:40:03.790Z,260
2016-04-17T13:41:03.745Z,265
2016-04-17T13:42:03.670Z,250
2016-04-17T13:43:03.704Z,245
2016-04-17T13:44:03.659Z,250
2016-04-17T13:45:03.678Z,260
2016-04-17T13:46:03.634Z,275
2016-04-17T13:47:03.730Z,275
2016-04-17T13:48:03.592Z,280
2016-04-17T13:49:03.564Z,280
2016-04-17T13:50:03.566Z,275
2016-04-17T13:51:03.537Z,270
2016-04-17T13:52:03.494Z,275
2016-04-17T13:53:03.511Z,255
2016-04-17T13:54:03.452Z,235
2016-04-17T13:55:03.423Z,210
2016-04-17T13:56:03.442Z,210
2016-04-17T13:57:03.678Z,210
2016-04-17T13:58:03.400Z,205
2016-04-17T13:59:03.356Z,200
2016-04-17T14:00:03.327Z,195
2016-04-17T14:01:03.314Z,185
2016-04-17T14:02:03.317Z,180
2016-04-17T14:03:03.273Z,170
2016-04-17T14:04:03.244Z,160
2016-04-17T14:05:03.231Z,155
2016-04-17T14:06:03.202Z,150
2016-04-17T14:07:03.174Z,150